Time;durP1;ratioP1;P1;durP2;ratioP2;P2;SDS_P1;SDS_P2;PMS_P1;PMS_P2;Temp;Humidity;BMP_temperature;BMP_pressure;BME280_temperature;BME280_humidity;BME280_pressure;Samples;Min_cycle;Max_cycle;Signal;HPM_P1;HPM_P2
2022/09/11 00:00:36;;;;;;;1.50;1.40;;;15.30;99.90;;;;;;4146393;28;20042;-64
2022/09/11 00:02:37;;;;;;;4.28;1.20;;;15.30;99.90;;;;;;4145323;28;20087;-64
2022/09/11 00:04:38;;;;;;;5.72;1.33;;;15.30;99.90;;;;;;4146071;28;20108;-64
2022/09/11 00:06:40;;;;;;;5.80;1.48;;;15.40;99.90;;;;;;4145130;28;20026;-63
2022/09/11 00:08:42;;;;;;;9.20;1.85;;;15.40;99.90;;;;;;4145376;28;20141;-63
2022/09/11 00:10:44;;;;;;;4.60;1.70;;;15.40;99.90;;;;;;4145391;28;20034;-65
2022/09/11 00:12:45;;;;;;;3.50;1.90;;;15.40;99.90;;;;;;4145035;28;20091;-64
2022/09/11 00:14:46;;;;;;;6.25;1.63;;;15.30;99.90;;;;;;4145940;28;20438;-64
2022/09/11 00:16:47;;;;;;;2.75;1.67;;;15.30;99.90;;;;;;4144953;28;20084;-65
2022/09/11 00:18:49;;;;;;;3.15;1.40;;;15.20;99.90;;;;;;4146260;28;20045;-65
2022/09/11 00:20:53;;;;;;;5.55;1.90;;;15.30;99.90;;;;;;4144602;28;20418;-65
2022/09/11 00:22:54;;;;;;;4.95;1.88;;;15.20;99.90;;;;;;4145758;28;20498;-64
2022/09/11 00:24:56;;;;;;;1.83;1.67;;;15.20;99.90;;;;;;4144740;28;20030;-65
2022/09/11 00:26:57;;;;;;;2.85;1.65;;;15.20;99.90;;;;;;4146224;28;20375;-64
2022/09/11 00:29:01;;;;;;;3.22;1.98;;;15.20;99.90;;;;;;4145110;28;20038;-64
2022/09/11 00:31:11;;;;;;;2.95;1.67;;;15.20;99.90;;;;;;4145958;28;20088;-64
2022/09/11 00:33:14;;;;;;;4.30;1.70;;;15.20;99.90;;;;;;4144949;28;20092;-64
2022/09/11 00:35:15;;;;;;;4.95;1.40;;;15.20;99.90;;;;;;4145835;28;20030;-65
2022/09/11 00:37:16;;;;;;;2.03;1.77;;;15.20;99.90;;;;;;4144458;28;20068;-65
2022/09/11 00:39:17;;;;;;;4.07;1.58;;;15.10;99.90;;;;;;4145565;28;20543;-64
2022/09/11 00:41:20;;;;;;;2.83;1.25;;;15.20;99.90;;;;;;4144770;28;20026;-64
2022/09/11 00:43:21;;;;;;;3.58;1.63;;;15.20;99.90;;;;;;4145341;28;20112;-63
2022/09/11 00:45:26;;;;;;;1.50;1.25;;;15.20;99.90;;;;;;4145144;28;20080;-64
2022/09/11 00:47:29;;;;;;;3.35;1.58;;;15.20;99.90;;;;;;4144893;28;20073;-64
2022/09/11 00:49:44;;;;;;;3.00;1.60;;;15.20;99.90;;;;;;4145497;28;20073;-64
2022/09/11 00:51:52;;;;;;;3.03;1.27;;;15.20;99.90;;;;;;4144405;28;20041;-63
2022/09/11 00:53:56;;;;;;;5.15;1.38;;;15.20;99.90;;;;;;4145110;28;20429;-64
2022/09/11 00:56:01;;;;;;;3.80;1.23;;;15.20;99.90;;;;;;4144773;28;20038;-63
2022/09/11 00:58:05;;;;;;;3.70;1.27;;;15.20;99.90;;;;;;4145905;28;20046;-64
2022/09/11 01:00:07;;;;;;;4.10;1.40;;;15.20;99.90;;;;;;4144338;28;20077;-63
2022/09/11 01:02:12;;;;;;;1.67;1.50;;;15.20;99.90;;;;;;4145641;28;20072;-65
2022/09/11 01:04:13;;;;;;;2.10;1.27;;;15.20;99.90;;;;;;4143063;28;20092;-64
2022/09/11 01:06:15;;;;;;;2.40;1.45;;;15.10;99.90;;;;;;4145589;28;20046;-63
2022/09/11 01:08:16;;;;;;;6.43;1.20;;;15.10;99.90;;;;;;4145166;28;20065;-64
2022/09/11 01:10:18;;;;;;;2.95;1.35;;;15.00;99.90;;;;;;4148890;28;20486;-64
2022/09/11 01:12:28;;;;;;;4.25;1.20;;;15.00;99.90;;;;;;4147556;28;20494;-64
2022/09/11 01:14:39;;;;;;;;;;;15.00;99.90;;;;;;4149309;28;20034;-64
2022/09/11 01:16:52;;;;;;;4.15;1.45;;;14.90;99.90;;;;;;4147600;28;20347;-64
2022/09/11 01:19:13;;;;;;;4.35;1.52;;;14.80;99.90;;;;;;4148632;28;20037;-64
2022/09/11 01:21:26;;;;;;;4.55;1.40;;;14.80;99.90;;;;;;4147554;28;20363;-64
2022/09/11 01:24:07;;;;;;;2.33;1.33;;;14.80;99.90;;;;;;4148677;28;20104;-65
2022/09/11 01:26:31;;;;;;;3.10;1.60;;;14.80;99.90;;;;;;4147500;28;20030;-64
2022/09/11 01:28:45;;;;;;;2.33;1.40;;;14.80;99.90;;;;;;4148409;28;20021;-64
2022/09/11 01:30:53;;;;;;;5.57;3.65;;;14.80;99.90;;;;;;4147778;28;20069;-64
2022/09/11 01:33:10;;;;;;;7.30;5.32;;;14.80;99.90;;;;;;4147786;28;20502;-64
2022/09/11 01:35:30;;;;;;;2.65;2.10;;;14.80;99.90;;;;;;4147857;28;20482;-64
2022/09/11 01:37:56;;;;;;;1.73;1.52;;;14.70;99.90;;;;;;4147323;28;20026;-64
2022/09/11 01:40:03;;;;;;;4.97;2.15;;;14.70;99.90;;;;;;4148320;28;20030;-65
2022/09/11 01:42:13;;;;;;;4.45;2.00;;;14.70;99.90;;;;;;4147180;28;20560;-64
2022/09/11 01:44:17;;;;;;;3.70;2.00;;;14.70;99.90;;;;;;4148454;28;20088;-64
2022/09/11 01:46:22;;;;;;;6.22;1.73;;;14.70;99.90;;;;;;4147139;28;20271;-64
2022/09/11 01:48:37;;;;;;;3.72;1.75;;;14.70;99.90;;;;;;4147923;28;20077;-64
2022/09/11 01:50:42;;;;;;;3.70;1.88;;;14.70;99.90;;;;;;4146907;28;20022;-64
2022/09/11 01:52:54;;;;;;;1.65;1.40;;;14.70;99.90;;;;;;4147877;28;20050;-64
2022/09/11 01:55:10;;;;;;;4.15;1.77;;;14.70;99.90;;;;;;4147325;28;20433;-64
2022/09/11 01:57:25;;;;;;;2.17;1.73;;;14.70;99.90;;;;;;4148029;28;20025;-64
2022/09/11 01:59:39;;;;;;;5.43;1.55;;;14.70;99.90;;;;;;4147466;28;21144;-64
2022/09/11 02:01:48;;;;;;;2.92;1.48;;;14.70;99.90;;;;;;4148041;28;20038;-64
2022/09/11 02:03:57;;;;;;;3.35;1.83;;;14.70;99.90;;;;;;4146906;28;20026;-63
2022/09/11 02:06:11;;;;;;;4.55;1.55;;;14.70;99.90;;;;;;4147849;28;20083;-64
2022/09/11 02:08:18;;;;;;;4.85;1.48;;;14.70;99.90;;;;;;4146691;28;20042;-63
2022/09/11 02:10:23;;;;;;;1.77;1.13;;;14.60;99.90;;;;;;4148106;28;20498;-63
2022/09/11 02:12:32;;;;;;;8.25;1.60;;;14.60;99.90;;;;;;4145649;28;20489;-63
2022/09/11 02:14:40;;;;;;;4.45;1.20;;;14.60;99.90;;;;;;4147771;28;20095;-65
2022/09/11 02:16:49;;;;;;;2.63;1.40;;;14.50;99.90;;;;;;4146893;28;20033;-64
2022/09/11 02:19:00;;;;;;;1.85;1.48;;;14.50;99.90;;;;;;4147783;28;20470;-64
2022/09/11 02:21:01;;;;;;;2.53;1.10;;;14.40;99.90;;;;;;4144286;28;20030;-66
2022/09/11 02:23:05;;;;;;;3.78;1.52;;;14.50;99.90;;;;;;4147511;28;20437;-64
2022/09/11 02:25:07;;;;;;;2.63;1.38;;;14.40;99.90;;;;;;4146646;28;20418;-64
2022/09/11 02:27:20;;;;;;;1.67;1.40;;;14.40;99.90;;;;;;4147144;28;20038;-65
2022/09/11 02:29:23;;;;;;;3.22;1.65;;;14.40;99.90;;;;;;4147082;28;20026;-65
2022/09/11 02:31:24;;;;;;;4.68;1.73;;;14.40;99.90;;;;;;4146982;28;20030;-65
2022/09/11 02:33:30;;;;;;;5.78;1.95;;;14.40;99.90;;;;;;4147071;28;20587;-65
2022/09/11 02:35:42;;;;;;;1.92;1.10;;;14.30;99.90;;;;;;4146689;28;20076;-65
2022/09/11 02:37:52;;;;;;;1.98;1.20;;;14.30;99.90;;;;;;4146864;28;20030;-64
2022/09/11 02:40:30;;;;;;;2.17;1.15;;;14.30;99.90;;;;;;4146721;28;20029;-65
2022/09/11 02:42:53;;;;;;;6.25;1.48;;;14.30;99.90;;;;;;4146321;28;20421;-64
2022/09/11 02:45:11;;;;;;;3.30;1.20;;;14.30;99.90;;;;;;4147281;28;20038;-63
2022/09/11 02:47:41;;;;;;;3.10;1.35;;;14.20;99.90;;;;;;4145003;28;20533;-64
2022/09/11 02:50:01;;;;;;;1.58;1.30;;;14.20;99.90;;;;;;4147354;28;20080;-64
2022/09/11 02:52:16;;;;;;;3.00;1.70;;;14.20;99.90;;;;;;4145776;28;20054;-63
2022/09/11 02:54:27;;;;;;;3.67;1.30;;;14.20;99.90;;;;;;4147069;28;20042;-63
2022/09/11 02:56:51;;;;;;;7.35;1.48;;;14.20;99.90;;;;;;4145945;28;20081;-63
2022/09/11 02:58:56;;;;;;;6.55;1.25;;;14.20;99.90;;;;;;4147462;28;20539;-64
2022/09/11 03:01:01;;;;;;;5.05;1.35;;;14.20;99.90;;;;;;4145961;28;20088;-64
2022/09/11 03:03:03;;;;;;;2.70;1.08;;;14.10;99.90;;;;;;4147275;28;20383;-64
2022/09/11 03:05:05;;;;;;;3.25;1.50;;;14.10;99.90;;;;;;4144727;28;20046;-64
2022/09/11 03:07:08;;;;;;;3.35;1.30;;;14.10;99.90;;;;;;4147141;28;20088;-64
2022/09/11 03:09:09;;;;;;;5.13;1.83;;;14.10;99.90;;;;;;4145824;28;20057;-64
2022/09/11 03:11:11;;;;;;;2.03;1.20;;;14.00;99.90;;;;;;4147161;28;20046;-64
2022/09/11 03:13:13;;;;;;;3.58;1.40;;;14.00;99.90;;;;;;4145724;28;20418;-64
2022/09/11 03:15:16;;;;;;;1.08;0.98;;;14.00;99.90;;;;;;4146887;28;20412;-63
2022/09/11 03:17:18;;;;;;;4.03;1.73;;;14.00;99.90;;;;;;4145862;28;20025;-64
2022/09/11 03:19:19;;;;;;;2.78;1.27;;;14.00;99.90;;;;;;4146847;28;20100;-64
2022/09/11 03:21:20;;;;;;;2.97;1.10;;;14.00;99.90;;;;;;4145936;28;20438;-64
2022/09/11 03:23:22;;;;;;;3.08;1.00;;;14.00;99.90;;;;;;4146645;28;20117;-64
2022/09/11 03:25:27;;;;;;;2.75;1.70;;;13.90;99.90;;;;;;4146194;28;20080;-64
2022/09/11 03:27:28;;;;;;;3.90;1.60;;;13.90;99.90;;;;;;4145961;28;20379;-65
2022/09/11 03:29:30;;;;;;;3.92;1.40;;;13.90;99.90;;;;;;4146988;28;20108;-65
2022/09/11 03:31:31;;;;;;;2.53;1.65;;;13.80;99.90;;;;;;4145183;28;20037;-64
2022/09/11 03:33:33;;;;;;;5.13;1.25;;;13.80;99.90;;;;;;4146576;28;20494;-64
2022/09/11 03:35:35;;;;;;;3.50;1.40;;;13.80;99.90;;;;;;4145522;28;20099;-64
2022/09/11 03:37:36;;;;;;;5.18;1.13;;;13.70;99.90;;;;;;4146325;28;20038;-63
2022/09/11 03:39:37;;;;;;;8.18;1.65;;;13.70;99.90;;;;;;4145559;28;20544;-65
2022/09/11 03:41:38;;;;;;;4.40;1.30;;;13.70;99.90;;;;;;4146518;28;20042;-65
2022/09/11 03:43:39;;;;;;;4.95;1.40;;;13.80;99.90;;;;;;4143882;28;20038;-63
2022/09/11 03:45:40;;;;;;;3.03;1.30;;;13.70;99.90;;;;;;4145968;28;20084;-64
2022/09/11 03:47:41;;;;;;;2.45;1.70;;;13.70;99.90;;;;;;4145113;28;20026;-64
2022/09/11 03:49:43;;;;;;;2.55;1.35;;;13.70;99.90;;;;;;4146408;28;20092;-65
2022/09/11 03:51:44;;;;;;;7.80;2.00;;;13.70;99.90;;;;;;4145178;28;20041;-64
2022/09/11 03:53:45;;;;;;;3.80;1.30;;;13.70;99.90;;;;;;4146035;28;20506;-65
2022/09/11 03:55:48;;;;;;;3.55;1.50;;;13.60;99.90;;;;;;4145586;28;20838;-64
2022/09/11 03:57:49;;;;;;;3.25;1.50;;;13.60;99.90;;;;;;4145636;28;20466;-64
2022/09/11 03:59:51;;;;;;;4.78;2.20;;;13.60;99.90;;;;;;4146149;28;20034;-64
2022/09/11 04:01:52;;;;;;;4.57;1.70;;;13.60;99.90;;;;;;4144982;28;20441;-64
2022/09/11 04:03:53;;;;;;;5.25;1.80;;;13.60;99.90;;;;;;4146090;28;20030;-64
2022/09/11 04:05:59;;;;;;;3.85;1.45;;;13.60;99.90;;;;;;4145142;28;20061;-64
2022/09/11 04:08:01;;;;;;;4.40;1.67;;;13.70;99.90;;;;;;4146422;28;20061;-64
2022/09/11 04:10:03;;;;;;;5.35;1.40;;;13.60;99.90;;;;;;4144637;28;20030;-64
2022/09/11 04:12:04;;;;;;;2.67;1.40;;;13.60;99.90;;;;;;4144337;28;20034;-64
2022/09/11 04:14:06;;;;;;;12.48;1.50;;;13.50;99.90;;;;;;4145138;28;20049;-64
2022/09/11 04:16:11;;;;;;;4.97;1.60;;;13.50;99.90;;;;;;4146360;28;20099;-64
2022/09/11 04:18:13;;;;;;;3.92;1.40;;;13.50;99.90;;;;;;4145056;28;20092;-64
2022/09/11 04:20:14;;;;;;;9.82;1.77;;;13.60;99.90;;;;;;4146156;28;20088;-63
2022/09/11 04:22:15;;;;;;;2.50;1.65;;;13.60;99.90;;;;;;4144668;28;20038;-64
2022/09/11 04:24:16;;;;;;;3.60;1.42;;;13.60;99.90;;;;;;4145966;28;20057;-64
2022/09/11 04:26:20;;;;;;;4.18;1.52;;;13.70;99.90;;;;;;4144895;28;20087;-63
2022/09/11 04:28:22;;;;;;;5.20;1.90;;;13.80;99.90;;;;;;4145311;28;20100;-63
2022/09/11 04:30:23;;;;;;;4.45;1.30;;;13.80;99.90;;;;;;4145817;28;20046;-65
2022/09/11 04:32:24;;;;;;;9.63;1.30;;;14.00;99.90;;;;;;4145289;28;20042;-63
2022/09/11 04:34:25;;;;;;;2.78;1.23;;;14.00;99.90;;;;;;4145686;28;20956;-64
2022/09/11 04:36:28;;;;;;;6.00;1.30;;;13.90;99.90;;;;;;4144546;28;20038;-63
2022/09/11 04:38:29;;;;;;;1.58;1.45;;;14.10;99.90;;;;;;4145546;28;20536;-64
2022/09/11 04:40:32;;;;;;;2.55;1.67;;;14.60;99.90;;;;;;4144771;28;20387;-64
2022/09/11 04:42:33;;;;;;;4.10;1.73;;;15.10;99.90;;;;;;4145200;28;20100;-64
2022/09/11 04:44:35;;;;;;;3.97;1.45;;;15.50;99.90;;;;;;4143126;28;20034;-65
2022/09/11 04:46:37;;;;;;;5.93;3.20;;;16.00;99.90;;;;;;4145731;28;20029;-64
2022/09/11 04:48:50;;;;;;;1.88;1.52;;;16.40;99.90;;;;;;4144545;28;20088;-65
2022/09/11 04:50:59;;;;;;;1.50;1.20;;;16.90;99.90;;;;;;4145237;28;20533;-65
2022/09/11 04:53:00;;;;;;;4.07;1.27;;;17.10;99.90;;;;;;4144342;28;20104;-64
2022/09/11 04:55:02;;;;;;;2.28;1.30;;;17.40;99.90;;;;;;4145529;28;20104;-65
2022/09/11 04:57:03;;;;;;;6.03;1.10;;;18.10;99.90;;;;;;4144298;28;20159;-65
2022/09/11 04:59:12;;;;;;;6.28;1.42;;;18.80;99.90;;;;;;4145679;28;20029;-65
2022/09/11 05:01:15;;;;;;;1.55;0.93;;;19.60;99.90;;;;;;4144605;28;20076;-65
2022/09/11 05:03:16;;;;;;;1.00;0.85;;;20.00;99.90;;;;;;4145425;28;20034;-65
2022/09/11 05:05:18;;;;;;;2.10;0.80;;;20.70;99.90;;;;;;4144213;28;20076;-65
2022/09/11 05:07:19;;;;;;;6.68;0.80;;;21.20;99.90;;;;;;4145036;28;20037;-65
2022/09/11 05:09:21;;;;;;;1.25;0.73;;;21.80;99.90;;;;;;4144764;28;20034;-65
2022/09/11 05:11:24;;;;;;;4.97;0.90;;;22.30;99.90;;;;;;4144792;28;20111;-65
2022/09/11 05:13:26;;;;;;;2.50;0.80;;;22.70;99.90;;;;;;4144681;28;20355;-65
2022/09/11 05:15:30;;;;;;;2.35;0.90;;;23.00;99.90;;;;;;4144434;28;20080;-65
2022/09/11 05:17:31;;;;;;;4.88;0.90;;;23.30;99.90;;;;;;4145296;28;20046;-65
2022/09/11 05:19:32;;;;;;;5.65;0.90;;;23.40;99.90;;;;;;4144421;28;20042;-65
2022/09/11 05:21:34;;;;;;;5.22;0.77;;;23.40;99.90;;;;;;4145154;28;20481;-65
2022/09/11 05:23:35;;;;;;;2.72;0.60;;;23.80;99.90;;;;;;4143976;28;20080;-65
2022/09/11 05:25:36;;;;;;;3.70;0.75;;;24.10;99.90;;;;;;4145469;28;20475;-65
2022/09/11 05:27:38;;;;;;;2.13;1.08;;;24.50;99.90;;;;;;4144097;28;20042;-65
2022/09/11 05:29:39;;;;;;;4.03;0.75;;;24.80;99.90;;;;;;4145853;28;20502;-65
2022/09/11 05:31:40;;;;;;;2.80;0.68;;;25.20;99.90;;;;;;4144375;28;20034;-65
2022/09/11 05:33:42;;;;;;;2.80;0.77;;;25.30;99.90;;;;;;4145320;28;20490;-64
2022/09/11 05:35:43;;;;;;;1.45;0.60;;;25.60;99.90;;;;;;4143902;28;20029;-65
2022/09/11 05:37:45;;;;;;;1.25;0.60;;;26.10;99.90;;;;;;4144927;28;20804;-66
2022/09/11 05:39:46;;;;;;;2.60;0.70;;;26.30;99.90;;;;;;4144159;28;20045;-64
2022/09/11 05:41:50;;;;;;;3.08;0.82;;;25.80;99.90;;;;;;4144544;28;20437;-66
2022/09/11 05:43:51;;;;;;;1.40;0.50;;;25.50;99.90;;;;;;4144415;28;20026;-65
2022/09/11 05:45:57;;;;;;;4.43;0.57;;;25.50;99.90;;;;;;4144318;28;20038;-66
2022/09/11 05:47:58;;;;;;;7.07;0.90;;;25.60;99.90;;;;;;4144762;28;20067;-64
2022/09/11 05:50:00;;;;;;;4.50;0.80;;;25.30;99.90;;;;;;4144145;28;20042;-65
2022/09/11 05:52:01;;;;;;;2.75;0.50;;;25.30;99.90;;;;;;4144379;28;20701;-64
2022/09/11 05:54:03;;;;;;;1.70;0.50;;;25.60;99.90;;;;;;4144245;28;20453;-64
2022/09/11 05:56:15;;;;;;;1.80;0.75;;;25.90;99.90;;;;;;4148239;28;20045;-64
2022/09/11 05:58:17;;;;;;;2.78;0.50;;;26.60;99.20;;;;;;4147043;28;20080;-64
2022/09/11 06:00:19;;;;;;;3.50;0.95;;;27.00;98.40;;;;;;4148502;28;20029;-65
2022/09/11 06:02:20;;;;;;;3.13;0.60;;;27.10;98.00;;;;;;4146808;28;20034;-64
2022/09/11 06:04:21;;;;;;;2.08;0.57;;;27.20;97.60;;;;;;4147883;28;20406;-65
2022/09/11 06:06:23;;;;;;;3.25;1.05;;;27.10;97.20;;;;;;4146862;28;20115;-64
2022/09/11 06:08:24;;;;;;;3.42;1.00;;;27.20;97.10;;;;;;4147930;28;20099;-65
2022/09/11 06:10:26;;;;;;;4.50;1.92;;;27.30;96.50;;;;;;4146446;28;20076;-64
2022/09/11 06:12:27;;;;;;;7.22;0.85;;;27.20;96.50;;;;;;4147777;28;20411;-65
2022/09/11 06:14:28;;;;;;;2.17;1.10;;;26.60;96.80;;;;;;4146590;28;20038;-65
2022/09/11 06:16:30;;;;;;;3.22;0.85;;;26.50;97.20;;;;;;4147286;28;20026;-65
2022/09/11 06:18:31;;;;;;;1.35;0.50;;;26.50;97.10;;;;;;4146803;28;20096;-65
2022/09/11 06:20:33;;;;;;;0.73;0.70;;;26.60;96.90;;;;;;4147196;28;20092;-64
2022/09/11 06:22:36;;;;;;;1.60;0.70;;;26.70;96.80;;;;;;4147039;28;20113;-65
2022/09/11 06:24:37;;;;;;;4.00;1.55;;;26.50;96.50;;;;;;4146525;28;20022;-65
2022/09/11 06:26:39;;;;;;;1.27;0.70;;;26.30;96.60;;;;;;4147596;28;20379;-65
2022/09/11 06:28:40;;;;;;;2.17;0.80;;;26.40;96.70;;;;;;4146537;28;20034;-65
2022/09/11 06:30:41;;;;;;;6.50;0.50;;;26.70;96.40;;;;;;4148135;28;20097;-65
2022/09/11 06:32:43;;;;;;;1.35;0.63;;;26.90;96.10;;;;;;4146133;28;20066;-66
2022/09/11 06:34:44;;;;;;;3.03;0.55;;;27.30;95.60;;;;;;4147196;28;20084;-65
2022/09/11 06:36:45;;;;;;;4.85;1.20;;;27.20;95.20;;;;;;4146083;28;20033;-65
2022/09/11 06:38:50;;;;;;;4.72;2.15;;;27.20;95.10;;;;;;4147209;28;20059;-65
2022/09/11 06:40:52;;;;;;;3.47;1.13;;;27.40;95.10;;;;;;4146015;28;20029;-66
2022/09/11 06:42:53;;;;;;;2.03;0.70;;;27.70;94.90;;;;;;4147578;28;20034;-65
2022/09/11 06:44:54;;;;;;;2.33;0.93;;;27.60;94.80;;;;;;4146322;28;20441;-65
2022/09/11 06:46:56;;;;;;;2.35;0.63;;;27.90;94.60;;;;;;4147114;28;20026;-66
2022/09/11 06:48:57;;;;;;;7.47;1.15;;;27.90;94.30;;;;;;4146167;28;20069;-64
2022/09/11 06:51:03;;;;;;;2.47;0.80;;;27.70;94.20;;;;;;4146413;28;20026;-64
2022/09/11 06:53:04;;;;;;;9.25;1.10;;;27.40;94.10;;;;;;4146081;28;20045;-64
2022/09/11 06:55:06;;;;;;;3.33;0.60;;;27.10;94.50;;;;;;4146418;28;20038;-64
2022/09/11 06:57:07;;;;;;;5.90;0.80;;;26.70;94.50;;;;;;4146769;28;20096;-66
2022/09/11 06:59:09;;;;;;;1.50;0.68;;;26.90;94.60;;;;;;4146016;28;20046;-65
2022/09/11 07:01:14;;;;;;;1.38;0.73;;;26.60;94.50;;;;;;4147363;28;20100;-66
2022/09/11 07:03:16;;;;;;;2.90;0.40;;;26.50;94.50;;;;;;4145657;28;20069;-65
2022/09/11 07:05:17;;;;;;;1.80;0.57;;;26.20;94.50;;;;;;4146839;28;20042;-65
2022/09/11 07:07:18;;;;;;;2.45;0.65;;;25.60;94.80;;;;;;4145049;28;20084;-65
2022/09/11 07:09:20;;;;;;;0.98;0.50;;;25.00;95.20;;;;;;4146907;28;20041;-65
2022/09/11 07:11:21;;;;;;;2.70;0.68;;;24.90;95.40;;;;;;4145449;28;20080;-65
2022/09/11 07:13:23;;;;;;;3.97;0.90;;;24.60;95.60;;;;;;4146797;28;20100;-65
2022/09/11 07:15:24;;;;;;;3.60;0.57;;;24.20;96.20;;;;;;4145839;28;20034;-65
2022/09/11 07:17:25;;;;;;;1.70;0.60;;;24.00;96.70;;;;;;4146799;28;20430;-65
2022/09/11 07:19:26;;;;;;;1.02;0.50;;;24.10;96.90;;;;;;4145578;28;20034;-67
2022/09/11 07:21:28;;;;;;;2.85;0.60;;;24.20;96.80;;;;;;4146272;28;20033;-64
2022/09/11 07:23:29;;;;;;;2.33;0.60;;;24.30;96.40;;;;;;4145494;28;20026;-65
2022/09/11 07:25:30;;;;;;;1.95;0.40;;;24.60;96.30;;;;;;4146075;28;20812;-66
2022/09/11 07:27:32;;;;;;;2.03;0.38;;;24.60;95.80;;;;;;4145611;28;20529;-63
2022/09/11 07:29:33;;;;;;;2.28;0.50;;;24.90;95.30;;;;;;4145653;28;20084;-66
2022/09/11 07:31:37;;;;;;;0.88;0.40;;;25.10;94.80;;;;;;4146453;28;20026;-64
2022/09/11 07:33:41;;;;;;;1.55;0.43;;;25.40;94.70;;;;;;4144829;28;20049;-66
2022/09/11 07:35:42;;;;;;;0.90;0.20;;;25.90;94.40;;;;;;4146263;28;20491;-65
2022/09/11 07:37:44;;;;;;;3.30;0.32;;;26.30;93.70;;;;;;4145122;28;20920;-66
2022/09/11 07:39:45;;;;;;;1.75;0.52;;;26.40;93.30;;;;;;4146394;28;20041;-65
2022/09/11 07:41:46;;;;;;;1.75;0.47;;;26.20;93.20;;;;;;4145243;28;20084;-65
2022/09/11 07:43:53;;;;;;;2.65;0.52;;;26.20;93.00;;;;;;4146136;28;20042;-66
2022/09/11 07:45:55;;;;;;;2.58;0.40;;;26.20;92.90;;;;;;4144816;28;20478;-65
2022/09/11 07:47:58;;;;;;;1.73;0.43;;;26.30;93.10;;;;;;4144715;28;20034;-66
2022/09/11 07:49:59;;;;;;;4.68;0.30;;;25.80;92.70;;;;;;4144729;28;20026;-66
2022/09/11 07:52:02;;;;;;;0.68;0.20;;;25.30;92.80;;;;;;4145669;28;20552;-66
2022/09/11 07:54:03;;;;;;;3.40;0.50;;;25.00;93.20;;;;;;4144509;28;20058;-65
2022/09/11 07:56:10;;;;;;;1.92;0.32;;;24.80;93.50;;;;;;4145295;28;20029;-64
2022/09/11 07:58:11;;;;;;;2.13;0.50;;;24.70;93.40;;;;;;4144870;28;20041;-65
2022/09/11 08:00:15;;;;;;;0.63;0.40;;;24.50;93.60;;;;;;4143997;28;20092;-65
2022/09/11 08:02:16;;;;;;;0.73;0.20;;;24.70;93.30;;;;;;4145458;28;20034;-64
2022/09/11 08:04:18;;;;;;;1.13;0.20;;;25.00;93.00;;;;;;4145418;28;20149;-66
2022/09/11 08:06:19;;;;;;;2.10;0.70;;;25.30;92.90;;;;;;4145087;28;20109;-64
2022/09/11 08:08:20;;;;;;;1.98;0.40;;;25.50;92.70;;;;;;4144687;28;20458;-64
2022/09/11 08:10:23;;;;;;;2.08;0.60;;;25.20;92.80;;;;;;4145488;28;20104;-65
2022/09/11 08:12:24;;;;;;;2.17;0.50;;;25.10;92.70;;;;;;4144527;28;20018;-65
2022/09/11 08:14:26;;;;;;;2.53;0.60;;;25.00;92.90;;;;;;4145640;28;20046;-64
2022/09/11 08:16:28;;;;;;;1.08;0.68;;;24.90;92.70;;;;;;4144313;28;20377;-65
2022/09/11 08:18:30;;;;;;;3.55;0.95;;;24.60;93.50;;;;;;4144937;28;20050;-65
2022/09/11 08:20:31;;;;;;;3.25;0.80;;;24.20;94.20;;;;;;4144757;28;20449;-64
2022/09/11 08:22:32;;;;;;;2.85;0.65;;;23.60;94.90;;;;;;4145702;28;20045;-64
2022/09/11 08:24:34;;;;;;;6.25;1.02;;;22.80;95.50;;;;;;4144420;28;20089;-64
2022/09/11 08:26:36;;;;;;;3.95;1.15;;;22.40;96.30;;;;;;4145345;28;20034;-65
2022/09/11 08:28:38;;;;;;;5.45;1.35;;;22.20;96.70;;;;;;4144312;28;20034;-65
2022/09/11 08:30:39;;;;;;;5.55;1.15;;;22.00;97.20;;;;;;4145295;28;20034;-66
2022/09/11 08:32:40;;;;;;;6.43;0.98;;;21.90;97.50;;;;;;4145164;28;20096;-64
2022/09/11 08:34:41;;;;;;;3.13;0.68;;;22.00;97.50;;;;;;4145006;28;20053;-66
2022/09/11 08:36:42;;;;;;;3.75;0.77;;;22.00;97.70;;;;;;4144338;28;20084;-64
2022/09/11 08:38:44;;;;;;;4.95;1.10;;;21.70;98.70;;;;;;4144442;28;20084;-65
2022/09/11 08:40:46;;;;;;;4.93;0.98;;;21.30;99.00;;;;;;4143932;28;20076;-65
2022/09/11 08:42:47;;;;;;;4.15;1.02;;;21.00;99.90;;;;;;4144202;28;20116;-65
2022/09/11 08:44:56;;;;;;;3.13;1.00;;;20.80;99.90;;;;;;4145137;28;20462;-64
2022/09/11 08:47:23;;;;;;;3.85;0.70;;;20.60;99.90;;;;;;4144007;28;20069;-65
2022/09/11 08:49:38;;;;;;;4.82;0.93;;;20.60;99.90;;;;;;4145087;28;20060;-65
2022/09/11 08:51:39;;;;;;;1.67;0.70;;;20.60;99.90;;;;;;4143959;28;20115;-65
2022/09/11 08:53:41;;;;;;;2.33;0.95;;;20.60;99.90;;;;;;4144990;28;20080;-65
2022/09/11 08:55:47;;;;;;;2.72;0.90;;;20.70;99.90;;;;;;4143928;28;20046;-64
2022/09/11 08:57:53;;;;;;;4.05;1.33;;;20.60;99.90;;;;;;4144666;28;20038;-65
2022/09/11 09:00:25;;;;;;;1.92;0.82;;;20.60;99.90;;;;;;4143482;28;20378;-64
2022/09/11 09:02:40;;;;;;;2.47;1.30;;;20.50;99.90;;;;;;4144793;28;20033;-65
2022/09/11 09:04:44;;;;;;;3.60;1.15;;;20.40;99.90;;;;;;4144200;28;20033;-64
2022/09/11 09:06:51;;;;;;;7.30;1.17;;;20.50;99.90;;;;;;4144335;28;20092;-64
2022/09/11 09:09:07;;;;;;;2.25;1.25;;;20.60;99.90;;;;;;4143841;28;20402;-64
2022/09/11 09:11:47;;;;;;;4.10;1.15;;;20.90;99.90;;;;;;4144224;28;20034;-66
2022/09/11 09:14:04;;;;;;;3.25;0.63;;;21.30;99.90;;;;;;4139817;28;20050;-65
2022/09/11 09:16:33;;;;;;;1.13;0.60;;;21.50;99.90;;;;;;4143895;28;20096;-64
2022/09/11 09:18:35;;;;;;;3.25;0.80;;;21.70;99.90;;;;;;4144912;28;20042;-65
2022/09/11 09:20:44;;;;;;;17.58;2.30;;;21.80;99.90;;;;;;4143779;28;20041;-64
2022/09/11 09:23:01;;;;;;;9.07;2.08;;;21.80;99.90;;;;;;4145232;28;20049;-64
2022/09/11 09:25:09;;;;;;;15.30;2.00;;;21.90;99.90;;;;;;4143744;28;20412;-64
2022/09/11 09:27:16;;;;;;;8.05;1.50;;;21.90;99.90;;;;;;4144921;28;20073;-65
2022/09/11 09:29:23;;;;;;;8.55;0.85;;;22.00;99.90;;;;;;4144593;28;20030;-65
2022/09/11 09:31:28;;;;;;;2.45;0.98;;;21.90;99.90;;;;;;4148220;28;20080;-67
2022/09/11 09:33:53;;;;;;;9.48;2.50;;;21.70;99.90;;;;;;4147086;28;20486;-65
2022/09/11 09:35:55;;;;;;;0.40;0.30;;;21.70;99.30;;;;;;4147962;28;20080;-65
2022/09/11 09:37:57;;;;;;;0.40;0.20;;;21.60;99.90;;;;;;4146720;28;20034;-65
2022/09/11 09:39:59;;;;;;;0.98;0.30;;;21.70;99.80;;;;;;4147974;28;20030;-65
2022/09/11 09:42:32;;;;;;;0.85;0.35;;;21.70;99.60;;;;;;4146811;28;20018;-65
2022/09/11 09:45:10;;;;;;;0.55;0.20;;;21.80;98.30;;;;;;4147674;28;20030;-65
2022/09/11 09:47:13;;;;;;;0.47;0.30;;;21.80;98.40;;;;;;4146686;28;20671;-65
2022/09/11 09:49:23;;;;;;;2.67;0.65;;;21.90;98.80;;;;;;4147996;28;20087;-66
2022/09/11 09:51:24;;;;;;;3.53;0.65;;;22.00;98.60;;;;;;4146460;28;20050;-66
2022/09/11 09:53:48;;;;;;;2.95;0.40;;;22.20;98.50;;;;;;4147987;28;20058;-66
2022/09/11 09:55:53;;;;;;;0.60;0.30;;;22.40;97.80;;;;;;4146688;28;20046;-65
2022/09/11 09:57:54;;;;;;;3.15;0.30;;;22.40;97.90;;;;;;4147896;28;20049;-66
2022/09/11 10:00:19;;;;;;;1.08;0.20;;;22.40;97.50;;;;;;4146761;28;20501;-65
2022/09/11 10:02:42;;;;;;;0.88;0.30;;;22.30;97.40;;;;;;4147668;28;20046;-65
2022/09/11 10:04:43;;;;;;;1.75;0.35;;;22.40;97.20;;;;;;4146307;28;20080;-64
2022/09/11 10:06:46;;;;;;;0.75;0.10;;;22.60;97.30;;;;;;4147593;28;20380;-64
2022/09/11 10:08:47;;;;;;;1.65;0.20;;;22.80;96.90;;;;;;4146526;28;20088;-65
2022/09/11 10:11:04;;;;;;;0.22;0.10;;;23.10;96.70;;;;;;4147714;28;20038;-65
2022/09/11 10:13:21;;;;;;;0.30;0.13;;;23.30;95.80;;;;;;4146151;28;20428;-66
2022/09/11 10:15:24;;;;;;;0.63;0.10;;;23.40;95.50;;;;;;4147335;28;20096;-64
2022/09/11 10:17:28;;;;;;;0.45;0.10;;;23.60;95.70;;;;;;4144772;28;20099;-66
2022/09/11 10:19:37;;;;;;;0.30;0.20;;;23.60;95.10;;;;;;4147529;28;20586;-66
2022/09/11 10:21:38;;;;;;;0.65;0.10;;;23.70;94.90;;;;;;4145900;28;20026;-65
2022/09/11 10:23:53;;;;;;;0.50;0.17;;;23.60;95.10;;;;;;4147162;28;20038;-65
2022/09/11 10:25:55;;;;;;;0.43;0.20;;;23.60;93.70;;;;;;4145882;28;20080;-65
2022/09/11 10:28:10;;;;;;;0.75;0.10;;;23.60;94.30;;;;;;4147427;28;20453;-66
2022/09/11 10:30:23;;;;;;;1.00;0.22;;;23.60;94.00;;;;;;4146078;28;20429;-65
2022/09/11 10:32:25;;;;;;;0.45;0.20;;;23.60;93.60;;;;;;4147366;28;20022;-65
2022/09/11 10:34:34;;;;;;;0.20;0.20;;;23.70;94.20;;;;;;4144829;28;20088;-65
2022/09/11 10:36:35;;;;;;;0.45;0.13;;;23.60;93.70;;;;;;4146794;28;20382;-65
2022/09/11 10:38:47;;;;;;;0.35;0.10;;;23.60;93.80;;;;;;4146116;28;20744;-65
2022/09/11 10:41:24;;;;;;;1.33;0.20;;;23.40;92.70;;;;;;4146012;28;20060;-65
2022/09/11 10:43:34;;;;;;;0.90;0.20;;;23.10;92.00;;;;;;4141805;28;20033;-66
2022/09/11 10:45:35;;;;;;;0.38;0.00;;;22.90;92.80;;;;;;4147314;28;20072;-65
2022/09/11 10:47:36;;;;;;;0.50;0.10;;;22.70;93.40;;;;;;4146000;28;20571;-66
2022/09/11 10:49:39;;;;;;;0.60;0.30;;;22.60;93.80;;;;;;4147162;28;20042;-67
2022/09/11 10:51:42;;;;;;;0.00;0.00;;;22.70;94.10;;;;;;4145691;28;20085;-66
2022/09/11 10:54:09;;;;;;;0.43;0.00;;;22.70;93.80;;;;;;4146667;28;20029;-65